Time;durP1;ratioP1;P1;durP2;ratioP2;P2;SDS_P1;SDS_P2;PMS_P1;PMS_P2;Temp;Humidity;BMP_temperature;BMP_pressure;BME280_temperature;BME280_humidity;BME280_pressure;Samples;Min_cycle;Max_cycle;Signal;HPM_P1;HPM_P2
2022/01/26 00:06:43;;;;;;;7.67;3.63;;;;;;;10.13;48.86;101546.06;4925289;29;20111;-77
2022/01/26 00:09:12;;;;;;;11.30;5.93;;;;;;;10.18;48.77;101554.53;4921890;29;20062;-78
2022/01/26 00:11:39;;;;;;;10.50;4.67;;;;;;;10.31;48.96;101580.44;4924787;29;20059;-77
2022/01/26 00:14:11;;;;;;;14.90;8.17;;;;;;;10.18;48.90;101559.25;4922112;29;20063;-86
2022/01/26 00:16:45;;;;;;;8.40;3.80;;;;;;;10.23;49.11;101578.06;4936889;29;20048;-87
2022/01/26 00:19:20;;;;;;;;;;;;;;;10.11;49.64;101576.16;4928123;29;20081;-80
2022/01/26 00:21:50;;;;;;;18.27;9.37;;;;;;;9.87;49.33;101518.81;4936750;29;19962;-79
2022/01/26 00:27:22;;;;;;;13.13;7.03;;;;;;;9.95;49.47;101537.97;4929827;29;20238;-78
2022/01/26 00:30:00;;;;;;;10.53;7.90;;;;;;;9.64;49.54;101497.50;4928653;29;20060;-78
2022/01/26 00:40:51;;;;;;;10.83;5.20;;;;;;;9.97;49.93;101558.06;4931351;29;20128;-73
2022/01/26 00:43:25;;;;;;;10.53;6.63;;;;;;;9.72;49.75;101500.72;4920410;29;20048;-75
2022/01/26 00:45:56;;;;;;;17.87;8.33;;;;;;;10.03;49.73;101550.63;4927424;29;20055;-75
2022/01/26 00:48:26;;;;;;;16.40;8.80;;;;;;;10.02;49.67;101547.00;4932102;29;20495;-73
2022/01/26 00:50:54;;;;;;;12.35;7.15;;;;;;;10.00;49.76;101543.63;4928767;29;20061;-72
2022/01/26 00:53:27;;;;;;;10.70;6.53;;;;;;;9.95;49.86;101540.75;4933521;29;20139;-76
2022/01/26 00:55:54;;;;;;;21.50;8.63;;;;;;;9.72;49.79;101503.50;4968311;28;20138;-74
2022/01/26 00:58:21;;;;;;;13.73;8.20;;;;;;;9.92;49.94;101532.88;4939094;28;20134;-74
2022/01/26 01:00:48;;;;;;;16.43;8.67;;;;;;;9.79;49.85;101508.94;4934196;29;20248;-76
2022/01/26 01:03:16;;;;;;;10.97;7.23;;;;;;;9.66;49.96;101485.00;4927982;29;20067;-80
2022/01/26 01:08:39;;;;;;;11.53;5.47;;;;;;;9.36;50.22;101442.63;4921707;29;20567;-80
2022/01/26 01:11:07;;;;;;;11.98;7.53;;;;;;;9.81;50.21;101517.03;4925280;29;20147;-79
2022/01/26 01:13:38;;;;;;;12.77;7.50;;;;;;;9.86;50.09;101528.31;4934080;29;20130;-78
2022/01/26 01:16:09;;;;;;;17.17;8.60;;;;;;;9.65;50.23;101497.25;4931878;29;20083;-83
2022/01/26 01:27:03;;;;;;;17.47;8.70;;;;;;;9.77;50.41;101521.44;4922124;29;20052;-81
2022/01/26 01:29:38;;;;;;;2.70;2.30;;;;;;;9.66;50.55;101512.88;4933158;29;20086;-80
2022/01/26 01:32:12;;;;;;;7.80;5.50;;;;;;;9.51;50.72;101493.09;4935389;29;20126;-81
2022/01/26 01:34:40;;;;;;;12.83;7.77;;;;;;;9.33;50.76;101468.19;4926131;29;20500;-75
2022/01/26 01:37:09;;;;;;;5.93;4.13;;;;;;;9.49;50.79;101490.53;4926083;29;20455;-75
2022/01/26 01:39:37;;;;;;;9.50;4.47;;;;;;;9.61;51.06;101515.59;4941560;29;20138;-77
2022/01/26 01:42:06;;;;;;;9.73;3.83;;;;;;;9.55;50.97;101505.44;4924431;29;20144;-78
2022/01/26 01:44:35;;;;;;;11.10;7.35;;;;;;;9.56;50.95;101507.13;4928976;29;20095;-77
2022/01/26 01:47:03;;;;;;;12.10;5.67;;;;;;;9.55;51.00;101505.44;4921906;29;20063;-74
2022/01/26 01:49:30;;;;;;;11.07;6.53;;;;;;;9.40;50.97;101483.69;4928908;29;20485;-75
2022/01/26 01:52:01;;;;;;;8.77;6.60;;;;;;;9.61;50.85;101510.00;4933910;29;20138;-75
2022/01/26 01:54:28;;;;;;;13.07;7.37;;;;;;;9.57;50.70;101486.53;4926381;29;20047;-75
2022/01/26 01:56:58;;;;;;;15.90;8.87;;;;;;;9.62;50.65;101480.19;4918329;29;20130;-75
2022/01/26 01:59:31;;;;;;;20.13;9.07;;;;;;;9.81;50.18;101500.31;4932589;29;20421;-82
2022/01/26 02:01:59;;;;;;;18.07;9.00;;;;;;;9.80;50.31;101502.25;4931737;29;20079;-78
2022/01/26 02:04:26;;;;;;;19.30;9.13;;;;;;;9.76;50.28;101494.66;4935196;29;20055;-72
2022/01/26 02:06:53;;;;;;;11.67;6.93;;;;;;;9.71;50.47;101484.25;4927352;29;20489;-73
2022/01/26 02:09:20;;;;;;;13.33;7.27;;;;;;;9.51;50.49;101470.78;4919535;29;20066;-74
2022/01/26 02:11:50;;;;;;;13.30;7.70;;;;;;;9.54;50.64;101475.88;4935268;29;20097;-74
2022/01/26 02:15:02;;;;;;;10.77;7.22;;;;;;;9.65;50.64;101494.47;4932487;29;20136;-73
2022/01/26 02:53:22;;;;;;;13.57;7.37;;;;;;;9.51;50.72;101476.38;4927694;29;20147;-74
2022/01/26 02:55:53;;;;;;;17.27;9.67;;;;;;;9.50;50.85;101480.22;4922902;29;20155;-75
2022/01/26 03:03:39;;;;;;;14.97;8.30;;;;;;;9.56;50.82;101484.81;4933345;29;20064;-74
2022/01/26 03:06:41;;;;;;;14.30;7.83;;;;;;;9.50;50.86;101483.03;4935201;29;20415;-76
2022/01/26 03:09:13;;;;;;;12.20;7.80;;;;;;;9.49;50.87;101467.41;4916581;29;20142;-76
2022/01/26 03:11:42;;;;;;;12.37;7.43;;;;;;;9.56;50.85;101478.38;4925563;29;20494;-76
2022/01/26 03:14:31;;;;;;;13.73;7.57;;;;;;;9.41;50.75;101453.88;4949841;28;20142;-82
2022/01/26 03:17:07;;;;;;;18.10;7.67;;;;;;;9.60;50.69;101479.56;4933328;29;20493;-82
2022/01/26 03:19:47;;;;;;;11.70;6.50;;;;;;;9.58;50.68;101473.41;4933098;29;20411;-82
2022/01/26 03:33:24;;;;;;;8.03;4.30;;;;;;;9.39;51.18;101472.78;4931775;29;20102;-82
2022/01/26 03:35:56;;;;;;;10.60;5.80;;;;;;;9.24;51.37;101453.84;4927954;29;20083;-86
2022/01/26 03:38:27;;;;;;;4.47;3.00;;;;;;;9.27;51.63;101472.00;4937251;29;20094;-87
2022/01/26 03:41:14;;;;;;;5.67;3.10;;;;;;;8.99;51.79;101443.91;4932239;29;20090;-87
2022/01/26 03:43:42;;;;;;;6.77;4.13;;;;;;;9.12;51.93;101462.22;4933245;29;20079;-87
2022/01/26 03:46:09;;;;;;;11.53;3.80;;;;;;;9.10;51.97;101469.19;4935575;29;20428;-87
2022/01/26 03:48:36;;;;;;;9.37;6.70;;;;;;;8.92;52.07;101433.97;4937572;29;20079;-88
2022/01/26 03:51:03;;;;;;;7.57;5.07;;;;;;;9.05;52.42;101467.13;4938507;29;20086;-83
2022/01/26 03:53:30;;;;;;;5.23;2.57;;;;;;;8.80;52.35;101425.66;4924870;29;20054;-85
2022/01/26 03:55:57;;;;;;;7.23;4.63;;;;;;;8.96;52.60;101457.47;4957868;28;20146;-86
2022/01/26 03:58:24;;;;;;;7.87;4.23;;;;;;;8.98;52.47;101460.84;4936952;29;20523;-85
2022/01/26 04:00:51;;;;;;;10.37;4.23;;;;;;;8.87;52.52;101439.47;4935871;29;20167;-81
2022/01/26 04:03:18;;;;;;;6.60;3.80;;;;;;;9.02;52.41;101462.03;4921757;29;20099;-82
2022/01/26 04:05:45;;;;;;;5.67;3.00;;;;;;;8.89;52.55;101446.47;4937807;29;20502;-78
2022/01/26 04:08:18;;;;;;;9.30;5.80;;;;;;;9.10;52.45;101460.81;4929477;28;20055;-79
2022/01/26 04:11:01;;;;;;;4.70;3.53;;;;;;;8.86;52.26;101424.69;4932007;29;20136;-77
2022/01/26 04:13:29;;;;;;;2.50;2.10;;;;;;;9.13;52.19;101458.38;4936210;29;20464;-75
2022/01/26 04:15:55;;;;;;;11.37;4.90;;;;;;;9.14;52.17;101462.00;4923304;29;20096;-76
2022/01/26 04:18:29;;;;;;;4.23;3.87;;;;;;;9.09;52.42;101457.16;4935055;29;20075;-76
2022/01/26 04:21:00;;;;;;;5.70;3.17;;;;;;;8.87;52.29;101426.38;4928237;29;20139;-76
2022/01/26 04:23:37;;;;;;;10.40;2.70;;;;;;;9.06;51.90;101440.97;4961036;28;20134;-72
2022/01/26 04:26:05;;;;;;;6.53;3.67;;;;;;;9.08;51.89;101427.59;4929281;29;20056;-73
2022/01/26 04:28:47;;;;;;;11.50;6.23;;;;;;;9.13;51.60;101429.66;4933074;29;20090;-73
2022/01/26 04:31:16;;;;;;;4.47;3.17;;;;;;;9.20;51.92;101439.56;4925728;29;20064;-73
2022/01/26 04:33:42;;;;;;;2.73;2.50;;;;;;;8.82;51.97;101389.19;4934561;29;20051;-71
2022/01/26 04:36:13;;;;;;;10.93;6.20;;;;;;;8.97;51.96;101423.78;4932331;29;20146;-71
2022/01/26 04:38:49;;;;;;;7.50;4.40;;;;;;;9.05;51.93;101430.06;4918716;29;20060;-71
2022/01/26 04:41:31;;;;;;;5.27;3.33;;;;;;;9.09;52.02;101445.16;4934403;29;20139;-71
2022/01/26 04:44:12;;;;;;;9.70;4.63;;;;;;;8.97;52.29;101443.28;4928005;29;20151;-74
2022/01/26 04:46:39;;;;;;;10.80;5.57;;;;;;;9.04;52.14;101450.66;4925854;29;20126;-74
2022/01/26 04:49:06;;;;;;;8.07;3.77;;;;;;;8.98;52.14;101436.59;4936490;29;20408;-74
2022/01/26 04:51:33;;;;;;;11.33;4.60;;;;;;;9.01;52.20;101443.63;4928743;29;20051;-75
2022/01/26 04:54:00;;;;;;;6.73;3.33;;;;;;;8.97;52.07;101439.66;4928293;29;20086;-75
2022/01/26 04:56:26;;;;;;;12.77;6.10;;;;;;;9.06;52.09;101448.44;4930104;29;20044;-74
2022/01/26 04:58:53;;;;;;;7.17;3.80;;;;;;;7.60;52.25;101238.06;4934660;29;20087;-74
2022/01/26 05:01:20;;;;;;;11.20;4.70;;;;;;;8.87;52.24;101431.94;4928668;29;20086;-74
2022/01/26 05:03:47;;;;;;;10.10;5.20;;;;;;;8.92;52.40;101447.91;4923652;29;20075;-73
2022/01/26 05:06:14;;;;;;;7.47;4.87;;;;;;;8.87;52.28;101429.16;4931616;29;20138;-73
2022/01/26 05:08:41;;;;;;;6.20;4.30;;;;;;;8.75;52.18;101395.78;4924978;29;20502;-74
2022/01/26 05:11:12;;;;;;;7.23;3.00;;;;;;;8.39;52.38;101358.00;4928906;29;20056;-74
2022/01/26 05:13:57;;;;;;;6.30;3.43;;;;;;;8.87;52.33;101436.66;4965655;28;20079;-71
2022/01/26 05:16:29;;;;;;;2.57;1.40;;;;;;;8.83;52.56;101446.63;4958285;29;20039;-70
2022/01/26 05:18:57;;;;;;;8.60;4.30;;;;;;;8.86;52.47;101446.97;4955496;29;20059;-73
2022/01/26 05:21:25;;;;;;;4.53;3.63;;;;;;;8.89;52.37;101434.47;4945919;29;20052;-70
2022/01/26 05:23:52;;;;;;;6.43;3.93;;;;;;;8.98;52.31;101439.41;4958092;29;20031;-71
2022/01/26 05:26:20;;;;;;;12.33;3.93;;;;;;;8.97;52.35;101448.84;4950566;29;20032;-70
2022/01/26 05:28:47;;;;;;;8.60;4.13;;;;;;;9.03;52.09;101452.59;4952593;29;20048;-72
2022/01/26 05:31:14;;;;;;;7.60;3.33;;;;;;;8.99;52.27;101449.47;4981445;28;20040;-73
2022/01/26 05:33:42;;;;;;;5.07;3.13;;;;;;;8.78;52.42;101411.13;4932606;29;20507;-74
2022/01/26 05:36:09;;;;;;;13.30;5.20;;;;;;;8.81;52.44;101418.16;4934630;29;20058;-75
2022/01/26 05:38:36;;;;;;;5.90;2.63;;;;;;;8.92;52.12;101417.25;4918016;29;20472;-76
2022/01/26 05:41:04;;;;;;;2.33;1.73;;;;;;;8.74;52.30;101402.44;4929661;29;20130;-76
2022/01/26 05:43:32;;;;;;;11.63;3.67;;;;;;;9.02;52.11;101436.97;4934305;29;20135;-76
2022/01/26 05:46:13;;;;;;;8.37;4.43;;;;;;;8.75;51.89;101372.63;4929547;29;20066;-79
2022/01/26 05:48:44;;;;;;;6.00;4.23;;;;;;;8.92;51.70;101401.41;4932261;29;20138;-79
2022/01/26 05:51:12;;;;;;;5.13;3.03;;;;;;;9.12;51.67;101437.16;4918795;29;20053;-77
2022/01/26 05:53:40;;;;;;;2.60;1.90;;;;;;;8.91;51.32;101410.00;4936349;29;20554;-82
2022/01/26 05:56:07;;;;;;;4.53;2.50;;;;;;;9.29;51.26;101442.78;4963064;28;20126;-83
2022/01/26 05:58:34;;;;;;;5.53;3.97;;;;;;;9.26;51.15;101437.69;4933574;29;20133;-82
2022/01/26 06:01:02;;;;;;;5.00;2.90;;;;;;;9.34;51.09;101447.63;4946351;29;20146;-81
2022/01/26 06:03:29;;;;;;;5.67;3.60;;;;;;;9.51;50.71;101447.66;4930089;29;20526;-78
2022/01/26 06:05:57;;;;;;;2.63;1.57;;;;;;;9.50;50.76;101452.34;4935900;29;20143;-78
2022/01/26 06:08:25;;;;;;;3.50;2.20;;;;;;;9.54;50.58;101453.56;4935168;29;20139;-79
2022/01/26 06:10:55;;;;;;;3.47;2.37;;;;;;;9.47;50.43;101436.16;4933809;29;20587;-80
2022/01/26 06:13:22;;;;;;;1.85;1.50;;;;;;;9.47;50.24;101416.63;4936707;29;20484;-81
2022/01/26 06:15:49;;;;;;;3.60;2.43;;;;;;;9.77;49.96;101449.75;4932490;29;20083;-81
2022/01/26 06:18:16;;;;;;;3.73;2.97;;;;;;;9.79;49.89;101447.56;4939532;29;20134;-83
2022/01/26 06:20:43;;;;;;;1.90;1.37;;;;;;;9.62;50.07;101433.63;4975329;28;20087;-71
2022/01/26 06:23:10;;;;;;;2.47;1.70;;;;;;;9.60;50.41;101441.38;4935547;29;20155;-74
2022/01/26 06:25:37;;;;;;;2.70;1.63;;;;;;;9.58;50.25;101423.22;4935855;29;20119;-76
2022/01/26 06:28:08;;;;;;;3.43;2.03;;;;;;;9.75;49.81;101439.97;4949078;29;20056;-85
2022/01/26 06:30:36;;;;;;;2.73;2.00;;;;;;;9.50;49.91;101407.75;4940469;29;20059;-76
2022/01/26 06:33:05;;;;;;;1.67;1.50;;;;;;;9.72;49.92;101444.94;4937207;29;20083;-75
2022/01/26 06:35:34;;;;;;;2.10;1.90;;;;;;;9.66;50.18;101440.38;4932309;29;20802;-73
2022/01/26 06:38:02;;;;;;;;;;;;;;;9.64;50.05;101450.06;4934028;29;20087;-74
2022/01/26 06:40:29;;;;;;;2.13;1.77;;;;;;;9.49;50.01;101417.22;4920145;29;20013;-75
2022/01/26 06:43:00;;;;;;;5.17;2.70;;;;;;;9.61;49.71;101426.34;4924407;29;20127;-72
2022/01/26 06:45:32;;;;;;;3.80;1.53;;;;;;;9.60;49.94;101435.78;4943157;29;20083;-76
2022/01/26 06:50:46;;;;;;;4.23;1.90;;;;;;;9.57;50.03;101439.13;4928506;29;20526;-70
2022/01/26 06:53:14;;;;;;;5.63;2.63;;;;;;;9.56;50.48;101445.78;4937454;29;20893;-83
2022/01/26 06:55:41;;;;;;;7.43;3.63;;;;;;;9.26;50.24;101412.59;4935887;29;20079;-74
2022/01/26 06:58:08;;;;;;;3.27;1.37;;;;;;;9.11;50.29;101387.25;4937538;29;20078;-74
2022/01/26 07:00:43;;;;;;;2.47;1.67;;;;;;;9.03;50.50;101396.88;4938268;29;20090;-74
2022/01/26 07:03:38;;;;;;;8.63;3.70;;;;;;;9.37;50.54;101456.31;4934960;29;20051;-72
2022/01/26 07:06:08;;;;;;;2.20;1.50;;;;;;;9.01;50.62;101410.19;4937245;29;20071;-72
2022/01/26 07:08:34;;;;;;;2.63;1.77;;;;;;;9.19;50.90;101451.78;4928030;29;20143;-72
2022/01/26 07:11:01;;;;;;;1.23;1.13;;;;;;;9.10;51.09;101456.09;4935754;29;20059;-71
2022/01/26 07:13:28;;;;;;;5.10;2.90;;;;;;;9.17;51.02;101459.56;4936648;28;20167;-72
2022/01/26 07:21:27;;;;;;;1.83;1.23;;;;;;;8.69;51.47;101394.00;4929289;29;20533;-71
2022/01/26 07:24:11;;;;;;;2.00;1.50;;;;;;;9.11;51.30;101466.13;4924985;29;20083;-73
2022/01/26 07:26:38;;;;;;;3.97;1.90;;;;;;;9.28;50.95;101468.97;4933498;29;20082;-72
2022/01/26 07:29:10;;;;;;;7.07;2.33;;;;;;;9.30;50.80;101468.69;4934245;29;20142;-72
2022/01/26 07:31:42;;;;;;;1.50;1.40;;;;;;;9.24;50.77;101462.19;4942869;28;20142;-72
2022/01/26 07:34:12;;;;;;;6.63;3.30;;;;;;;8.92;51.19;101426.50;4930034;29;20060;-70
2022/01/26 07:36:39;;;;;;;6.57;3.45;;;;;;;9.15;51.19;101475.69;4925734;29;20186;-69
2022/01/26 07:39:10;;;;;;;2.77;2.50;;;;;;;9.17;51.21;101476.28;4922913;29;20077;-70
2022/01/26 07:41:37;;;;;;;8.63;3.30;;;;;;;9.16;51.07;101484.88;4932640;29;20130;-69
2022/01/26 07:44:05;;;;;;;8.90;2.63;;;;;;;8.89;51.21;101445.59;4935056;29;20131;-70
2022/01/26 07:46:32;;;;;;;8.43;4.57;;;;;;;8.87;51.33;101470.94;4930675;29;20040;-70
2022/01/26 07:48:59;;;;;;;6.00;3.10;;;;;;;8.99;51.22;101484.81;4939419;29;20062;-71
2022/01/26 07:51:26;;;;;;;4.87;2.83;;;;;;;8.91;51.55;101482.44;4928489;29;20515;-70
2022/01/26 07:53:53;;;;;;;1.57;1.33;;;;;;;8.78;51.84;101466.84;4921520;29;20482;-71
2022/01/26 07:56:19;;;;;;;1.67;1.30;;;;;;;8.96;51.70;101491.75;4925093;29;20142;-71
2022/01/26 07:58:48;;;;;;;2.43;1.27;;;;;;;8.94;51.72;101481.94;4935127;29;20143;-71
2022/01/26 08:01:15;;;;;;;1.93;1.67;;;;;;;9.11;51.55;101499.56;4931441;29;20142;-70
2022/01/26 08:03:42;;;;;;;2.10;1.93;;;;;;;8.97;51.37;101471.16;4937957;29;20067;-70
2022/01/26 08:06:15;;;;;;;3.03;1.97;;;;;;;9.35;50.91;101507.84;4933914;29;20130;-72
2022/01/26 08:08:42;;;;;;;3.67;2.07;;;;;;;9.37;50.72;101498.13;4935180;29;20106;-71
2022/01/26 08:11:10;;;;;;;1.97;1.30;;;;;;;9.39;50.82;101500.66;4935711;29;20142;-71
2022/01/26 08:13:36;;;;;;;2.10;1.83;;;;;;;9.28;50.42;101476.47;4936153;29;21504;-70
2022/01/26 08:16:04;;;;;;;1.83;1.33;;;;;;;9.33;50.41;101465.41;4935702;29;20055;-70
2022/01/26 08:18:31;;;;;;;3.80;2.67;;;;;;;9.53;50.24;101510.41;4935236;29;20134;-71
2022/01/26 08:21:04;;;;;;;6.20;2.60;;;;;;;9.62;50.01;101516.44;4934476;29;20062;-71
2022/01/26 08:23:32;;;;;;;4.27;1.37;;;;;;;9.81;49.68;101514.25;4935950;29;20075;-71
2022/01/26 08:25:59;;;;;;;1.93;1.50;;;;;;;9.94;49.23;101525.94;4935577;29;20139;-71
2022/01/26 08:28:33;;;;;;;5.37;2.37;;;;;;;9.80;49.24;101495.81;4935291;29;20083;-71
2022/01/26 08:31:00;;;;;;;3.10;2.50;;;;;;;10.10;48.91;101524.25;4935284;29;20173;-71
2022/01/26 08:33:27;;;;;;;3.57;2.07;;;;;;;10.16;48.83;101522.41;4927166;29;20052;-70
2022/01/26 08:35:53;;;;;;;4.43;2.90;;;;;;;10.14;48.58;101508.69;4926758;29;20143;-70
2022/01/26 08:38:26;;;;;;;8.80;3.80;;;;;;;10.09;48.35;101475.13;4935515;29;20090;-70
2022/01/26 08:40:53;;;;;;;5.70;3.43;;;;;;;10.45;48.11;101523.16;4966150;28;20135;-71
2022/01/26 08:43:20;;;;;;;5.67;4.17;;;;;;;10.53;47.85;101488.34;4929900;29;20055;-70
2022/01/26 08:45:47;;;;;;;6.20;4.17;;;;;;;10.85;47.68;101525.69;4934294;29;20087;-71
2022/01/26 08:48:14;;;;;;;3.07;2.30;;;;;;;10.78;47.69;101504.63;4928880;29;20122;-70
2022/01/26 08:50:41;;;;;;;6.63;3.43;;;;;;;10.65;47.59;101489.94;4933882;29;20138;-72
2022/01/26 08:53:08;;;;;;;10.33;4.13;;;;;;;10.96;47.39;101521.06;4925228;29;20087;-72
2022/01/26 08:55:36;;;;;;;10.60;4.63;;;;;;;10.93;47.13;101481.63;4931586;29;20055;-71
2022/01/26 08:58:04;;;;;;;7.57;3.77;;;;;;;11.19;46.92;101502.34;4931365;29;20152;-70
2022/01/26 09:00:32;;;;;;;8.17;5.00;;;;;;;11.36;46.96;101526.31;4943720;29;20146;-71
2022/01/26 09:03:02;;;;;;;5.70;3.67;;;;;;;11.44;46.82;101527.81;4933025;29;20056;-70
2022/01/26 09:05:29;;;;;;;6.47;3.30;;;;;;;11.37;46.69;101528.00;4958913;28;20419;-70
2022/01/26 09:07:58;;;;;;;6.83;3.60;;;;;;;11.29;46.90;101522.06;4934965;29;20507;-71
2022/01/26 09:10:27;;;;;;;3.63;2.33;;;;;;;11.19;46.78;101510.75;4927112;29;20075;-71
2022/01/26 09:12:55;;;;;;;2.33;1.80;;;;;;;11.14;46.86;101517.97;4931698;29;20051;-70
2022/01/26 09:15:28;;;;;;;1.30;1.20;;;;;;;11.11;46.73;101518.50;4931273;29;20094;-71
2022/01/26 09:17:57;;;;;;;8.70;2.03;;;;;;;11.09;46.63;101509.50;4934142;29;20138;-70
2022/01/26 09:20:26;;;;;;;3.63;2.50;;;;;;;10.87;46.54;101494.69;4932373;29;20138;-71
2022/01/26 09:22:53;;;;;;;3.50;1.70;;;;;;;11.10;46.52;101513.97;4927929;29;20138;-71
2022/01/26 09:25:20;;;;;;;3.87;2.40;;;;;;;11.12;46.73;101511.78;4934694;29;20090;-71
2022/01/26 09:27:47;;;;;;;2.47;2.27;;;;;;;11.18;46.35;101495.06;4928770;29;20585;-73
2022/01/26 09:30:14;;;;;;;6.10;3.70;;;;;;;11.58;45.68;101517.88;4930293;29;20609;-71
2022/01/26 09:32:41;;;;;;;9.67;3.30;;;;;;;11.72;45.89;101528.66;4928350;29;20086;-71
2022/01/26 09:35:10;;;;;;;6.60;3.53;;;;;;;11.93;45.70;101518.53;4928993;29;20147;-70
2022/01/26 09:37:37;;;;;;;9.98;4.68;;;;;;;12.16;45.73;101512.56;4927143;29;20142;-72
2022/01/26 09:40:06;;;;;;;7.63;4.13;;;;;;;12.55;45.17;101515.09;4929251;29;20131;-70
2022/01/26 09:42:34;;;;;;;7.47;4.43;;;;;;;12.62;45.02;101475.66;4933573;29;20115;-71
2022/01/26 09:45:01;;;;;;;6.97;3.20;;;;;;;12.82;44.27;101509.38;4932222;29;20063;-72
2022/01/26 09:47:28;;;;;;;8.40;4.03;;;;;;;12.78;44.20;101519.44;4927493;29;20399;-72
2022/01/26 09:50:15;;;;;;;10.93;4.10;;;;;;;13.15;43.90;101518.50;4925085;29;20067;-70
2022/01/26 09:52:47;;;;;;;8.53;4.63;;;;;;;13.36;43.84;101514.66;4930313;29;20429;-71
2022/01/26 09:55:16;;;;;;;7.10;4.90;;;;;;;13.48;43.66;101511.63;4929679;29;20134;-70
2022/01/26 09:57:44;;;;;;;11.10;5.50;;;;;;;13.42;43.31;101502.34;4925375;29;20099;-70
2022/01/26 10:00:12;;;;;;;11.37;6.10;;;;;;;13.79;43.00;101517.28;4933284;29;20055;-71
2022/01/26 10:02:41;;;;;;;13.60;7.73;;;;;;;14.72;42.27;101502.94;4927747;29;20059;-71
2022/01/26 10:05:11;;;;;;;22.25;9.40;;;;;;;15.18;41.80;101528.09;4930096;29;20483;-71
2022/01/26 10:08:08;;;;;;;10.63;5.53;;;;;;;15.27;41.85;101526.34;4930119;29;20135;-71
2022/01/26 10:16:23;;;;;;;7.40;4.27;;;;;;;15.52;39.55;101525.41;4925935;28;20115;-71
2022/01/26 10:18:58;;;;;;;7.43;3.37;;;;;;;15.70;39.34;101525.88;4930134;29;20134;-72
2022/01/26 10:21:25;;;;;;;7.37;4.60;;;;;;;15.44;39.14;101542.03;4927251;29;20159;-70
2022/01/26 10:23:54;;;;;;;9.57;3.87;;;;;;;15.33;38.50;101516.75;4953161;28;20079;-71
2022/01/26 10:26:21;;;;;;;9.83;4.50;;;;;;;15.15;38.32;101511.78;4927114;29;20532;-71
2022/01/26 10:28:56;;;;;;;5.10;2.70;;;;;;;15.81;37.72;101508.59;4928913;29;20054;-72
2022/01/26 10:31:36;;;;;;;5.93;3.40;;;;;;;16.27;36.90;101527.13;4928255;29;20142;-71
2022/01/26 10:34:17;;;;;;;8.80;3.63;;;;;;;16.93;37.16;101517.19;4917323;29;20068;-72
2022/01/26 10:36:46;;;;;;;5.17;3.23;;;;;;;16.89;36.09;101530.19;4929421;29;20478;-72
2022/01/26 10:42:19;;;;;;;4.70;4.05;;;;;;;17.68;35.29;101525.78;4924429;29;20116;-71
2022/01/26 10:45:07;;;;;;;10.07;4.68;;;;;;;17.95;33.93;101524.31;4927466;29;20095;-71
2022/01/26 10:47:38;;;;;;;4.60;2.92;;;;;;;17.90;33.56;101504.59;4929737;29;20048;-72
2022/01/26 10:53:08;;;;;;;6.40;3.13;;;;;;;18.19;32.78;101533.50;4927602;29;20056;-71
2022/01/26 10:55:37;;;;;;;8.63;4.15;;;;;;;17.98;32.63;101537.78;4927513;29;20396;-71
2022/01/26 10:58:05;;;;;;;5.70;3.28;;;;;;;17.91;33.13;101520.38;4931215;29;20055;-71
2022/01/26 11:00:36;;;;;;;7.95;4.70;;;;;;;17.58;32.92;101502.50;4960291;28;20143;-72
2022/01/26 11:03:04;;;;;;;6.13;4.30;;;;;;;18.48;33.16;101523.94;4929771;29;20055;-71
2022/01/26 11:05:32;;;;;;;8.43;4.63;;;;;;;18.93;32.54;101527.91;4925437;29;20523;-72
2022/01/26 11:08:00;;;;;;;7.32;4.78;;;;;;;19.54;32.11;101528.63;4925612;29;20134;-72
2022/01/26 11:10:36;;;;;;;8.35;4.63;;;;;;;20.06;31.79;101529.13;4925355;29;20087;-72
2022/01/26 11:13:05;;;;;;;5.28;3.65;;;;;;;20.29;31.08;101531.97;4928724;29;20058;-72
2022/01/26 11:15:33;;;;;;;9.33;4.40;;;;;;;20.87;31.21;101542.38;4929248;29;20139;-72
2022/01/26 11:18:06;;;;;;;8.90;4.88;;;;;;;21.56;30.47;101523.94;4930546;29;20043;-73
2022/01/26 11:20:49;;;;;;;8.05;4.25;;;;;;;22.35;30.32;101523.63;4961097;28;20083;-72
2022/01/26 11:23:40;;;;;;;6.03;3.80;;;;;;;22.26;29.35;101525.69;4924081;29;20066;-72
2022/01/26 11:26:21;;;;;;;7.72;4.25;;;;;;;21.85;29.49;101501.41;4930520;29;20094;-73
2022/01/26 11:28:48;;;;;;;8.80;4.97;;;;;;;22.01;28.83;101519.59;4927420;29;20046;-73
2022/01/26 11:31:17;;;;;;;7.80;4.90;;;;;;;22.30;28.72;101515.28;4929014;29;20066;-71
2022/01/26 11:34:04;;;;;;;4.85;3.85;;;;;;;21.94;27.98;101515.59;4927313;29;20131;-72
2022/01/26 11:36:32;;;;;;;7.60;4.27;;;;;;;21.95;27.77;101508.75;4921783;29;20058;-71
2022/01/26 11:47:15;;;;;;;6.50;4.00;;;;;;;23.39;26.92;101474.84;4928864;29;20465;-71
2022/01/26 11:49:44;;;;;;;7.05;4.32;;;;;;;23.93;25.94;101484.69;4932145;29;20159;-72
2022/01/26 11:52:26;;;;;;;7.38;4.10;;;;;;;24.31;26.30;101465.34;4933862;29;20063;-72
2022/01/26 11:54:57;;;;;;;5.78;4.43;;;;;;;24.55;25.19;101472.34;4931052;29;20060;-72
2022/01/26 11:57:48;;;;;;;7.32;4.10;;;;;;;25.29;25.43;101465.50;4934277;29;20079;-72
2022/01/26 12:00:23;;;;;;;8.48;4.40;;;;;;;26.35;24.49;101453.97;4933627;29;20135;-72
2022/01/26 12:02:54;;;;;;;4.80;4.13;;;;;;;27.22;23.86;101466.56;4936351;29;20143;-72
2022/01/26 12:05:24;;;;;;;6.88;3.05;;;;;;;27.12;21.90;101445.84;4932777;29;20496;-71
2022/01/26 12:07:59;;;;;;;7.13;3.50;;;;;;;26.58;22.34;101452.19;4929018;29;20046;-72
2022/01/26 12:10:32;;;;;;;4.90;3.42;;;;;;;27.07;22.45;101448.94;4922923;29;20535;-72
2022/01/26 12:13:12;;;;;;;4.82;3.60;;;;;;;26.56;20.87;101448.84;4934422;29;20438;-72
2022/01/26 12:16:04;;;;;;;5.78;3.95;;;;;;;26.52;21.78;101453.66;4926746;29;20106;-72
2022/01/26 12:18:49;;;;;;;3.38;3.08;;;;;;;26.36;21.56;101452.75;4928383;29;20055;-71
2022/01/26 12:35:33;;;;;;;6.25;4.28;;;;;;;25.64;20.84;101410.63;4928965;29;20079;-71
2022/01/26 12:43:39;;;;;;;2.50;2.30;;;;;;;25.95;20.80;101407.09;4920482;29;20067;-72
2022/01/26 12:46:09;;;;;;;5.18;3.25;;;;;;;25.42;20.61;101409.13;4927661;29;20051;-72
2022/01/26 12:48:40;;;;;;;6.30;3.53;;;;;;;25.41;20.84;101398.06;4930573;29;20566;-72
2022/01/26 12:51:08;;;;;;;6.90;4.60;;;;;;;25.94;20.89;101405.38;4935739;29;20079;-73
2022/01/26 12:53:36;;;;;;;7.50;3.75;;;;;;;26.15;20.78;101373.69;4932954;29;20079;-72
2022/01/26 12:56:06;;;;;;;5.13;3.67;;;;;;;26.05;20.41;101388.56;4957715;28;20115;-73
2022/01/26 12:58:36;;;;;;;3.58;3.25;;;;;;;26.68;20.21;101391.47;4927880;29;20597;-72
2022/01/26 13:01:06;;;;;;;6.43;4.50;;;;;;;26.31;20.07;101373.69;4931177;29;20400;-72
2022/01/26 13:03:36;;;;;;;4.45;3.13;;;;;;;26.54;20.03;101376.78;4931274;29;20098;-72
2022/01/26 13:06:10;;;;;;;2.75;2.55;;;;;;;26.10;20.15;101365.38;4933781;29;20047;-72
2022/01/26 13:08:44;;;;;;;4.32;3.50;;;;;;;26.32;20.19;101374.53;4933135;29;20164;-72
2022/01/26 13:11:12;;;;;;;5.45;4.10;;;;;;;26.03;20.20;101365.19;4967927;28;20147;-72
2022/01/26 13:13:39;;;;;;;4.05;3.30;;;;;;;25.72;20.00;101323.81;4933102;29;20138;-71
2022/01/26 13:16:26;;;;;;;6.07;3.90;;;;;;;25.69;20.10;101340.88;4933234;29;20060;-71
2022/01/26 13:22:10;;;;;;;2.60;2.40;;;;;;;25.90;19.84;101344.38;4942999;29;20111;-73
2022/01/26 13:37:43;;;;;;;6.63;2.00;;;;;;;24.03;20.33;101311.03;4955381;29;20029;-72
2022/01/26 13:40:27;;;;;;;4.75;2.40;;;;;;;22.20;22.00;101317.31;4950765;29;20079;-70
2022/01/26 13:53:17;;;;;;;5.63;2.03;;;;;;;18.56;26.22;101301.75;4936803;29;20067;-71
2022/01/26 14:00:58;;;;;;;3.97;1.45;;;;;;;17.02;28.40;101269.88;4929123;29;20110;-71
2022/01/26 14:03:28;;;;;;;4.78;1.48;;;;;;;16.79;29.06;101303.53;4932487;29;20051;-71
2022/01/26 14:05:56;;;;;;;3.28;1.17;;;;;;;16.50;29.70;101295.13;4934970;29;20529;-71
2022/01/26 14:08:23;;;;;;;3.08;1.13;;;;;;;16.68;29.47;101275.72;4932070;29;20070;-71
2022/01/26 14:10:50;;;;;;;3.72;1.83;;;;;;;16.73;29.68;101276.50;4934267;29;20087;-71
2022/01/26 14:13:23;;;;;;;3.45;1.92;;;;;;;16.56;30.77;101276.19;4928610;29;20065;-72
2022/01/26 14:15:53;;;;;;;2.45;1.80;;;;;;;16.55;30.28;101263.25;4930883;29;20090;-72
2022/01/26 14:20:52;;;;;;;2.87;1.73;;;;;;;16.64;30.42;101281.13;4932837;29;20466;-72
2022/01/26 14:25:54;;;;;;;3.07;1.73;;;;;;;16.25;31.15;101265.31;4930632;29;20463;-71
2022/01/26 14:28:28;;;;;;;4.10;1.53;;;;;;;16.17;31.51;101267.94;4934169;29;20078;-71
2022/01/26 14:33:56;;;;;;;2.50;1.47;;;;;;;16.53;31.30;101265.50;4932422;29;20059;-72